Terminal Aerodrome Forecast
Issued by NWS

Home | Current Version | Previous Version | Text Only | Print | Product List | Glossary On
Versions: 1 2 3 4 5 6 7 8 9 10 11 12 13 14
000
FTPA31 PHFO 301725
TAFHOG
TAF
PHOG 301725Z 3018/3118 12005KT P6SM FEW060
     FM302000 08011KT P6SM FEW045 SCT060
     FM302300 06016G22KT P6SM FEW045 SCT060
     FM310600 06011KT P6SM FEW045 SCT060
     FM311000 08005KT P6SM SCT035 BKN050=

USA.gov is the U.S. government's official web portal to all federal, state and local government web resources and services.